Coen Airport


Codes: YCOE/CUQ
Name: Coen Airport
City:
Country: Australia
Elevation: 532 ft.
Wikipedia:

Photos at Coen Airport


   Photos courtesy of SpottingLog. You can add your own sightings and photos by signing up for a free trial today.



No photos found.

Weather at Coen Airport


Time (UTC)DescriptionTempratureWindCloud coverageVisibilityPressureHumidity
23-May-2024 21:00Scattered Clouds22°C11 mph, E49%10000m1013hPa80%
24-May-2024 00:00Scattered Clouds25°C13 mph, E28%10000m1014hPa71%
24-May-2024 03:00Scattered Clouds28°C13 mph, E40%10000m1012hPa58%
24-May-2024 06:00Broken Clouds26°C11 mph, E55%10000m1012hPa65%
24-May-2024 09:00Overcast Clouds23°C9 mph, E100%10000m1013hPa81%
24-May-2024 12:00Light Rain23°C9 mph, E88%10000m1015hPa83%
24-May-2024 15:00Broken Clouds22°C7 mph, SE68%10000m1015hPa87%
24-May-2024 18:00Broken Clouds22°C9 mph, SE74%10000m1013hPa83%
24-May-2024 21:00Broken Clouds22°C7 mph, SE55%10000m1014hPa86%
25-May-2024 00:00Broken Clouds25°C11 mph, E65%10000m1015hPa72%
25-May-2024 03:00Scattered Clouds29°C13 mph, E40%10000m1013hPa57%
25-May-2024 06:00Scattered Clouds28°C11 mph, E38%10000m1011hPa62%
25-May-2024 09:00Few Clouds23°C9 mph, E13%10000m1013hPa84%
25-May-2024 12:00Few Clouds23°C9 mph, E11%10000m1015hPa79%
25-May-2024 15:00Scattered Clouds23°C9 mph, SE29%10000m1014hPa83%
25-May-2024 18:00Broken Clouds23°C9 mph, E57%10000m1013hPa80%
25-May-2024 21:00Broken Clouds22°C7 mph, SE55%10000m1014hPa79%
26-May-2024 00:00Scattered Clouds27°C13 mph, E42%10000m1015hPa62%
26-May-2024 03:00Broken Clouds28°C13 mph, E66%10000m1013hPa61%
26-May-2024 06:00Broken Clouds27°C11 mph, E80%10000m1012hPa61%
26-May-2024 09:00Broken Clouds23°C9 mph, E75%10000m1014hPa83%
26-May-2024 12:00Overcast Clouds23°C9 mph, E86%10000m1015hPa81%
26-May-2024 15:00Broken Clouds22°C9 mph, SE75%10000m1014hPa82%
26-May-2024 18:00Overcast Clouds23°C9 mph, SE88%10000m1012hPa84%
26-May-2024 21:00Overcast Clouds23°C11 mph, E100%10000m1014hPa82%
27-May-2024 00:00Overcast Clouds26°C13 mph, E99%10000m1015hPa67%
27-May-2024 03:00Broken Clouds29°C13 mph, E76%10000m1013hPa58%
27-May-2024 06:00Overcast Clouds27°C11 mph, E88%10000m1011hPa65%
27-May-2024 09:00Overcast Clouds23°C11 mph, E88%10000m1013hPa78%
27-May-2024 12:00Overcast Clouds23°C11 mph, SE94%10000m1014hPa81%
27-May-2024 15:00Overcast Clouds22°C9 mph, SE100%10000m1013hPa83%
27-May-2024 18:00Overcast Clouds23°C9 mph, SE100%10000m1012hPa79%
27-May-2024 21:00Overcast Clouds23°C9 mph, SE98%10000m1013hPa81%
28-May-2024 00:00Overcast Clouds26°C13 mph, E99%10000m1014hPa73%
28-May-2024 03:00Overcast Clouds29°C16 mph, E96%10000m1012hPa53%
28-May-2024 06:00Overcast Clouds27°C11 mph, E98%10000m1011hPa62%
28-May-2024 09:00Overcast Clouds24°C11 mph, E100%10000m1013hPa77%
28-May-2024 12:00Overcast Clouds23°C11 mph, E100%10000m1014hPa78%
28-May-2024 15:00Overcast Clouds23°C11 mph, SE100%10000m1013hPa80%
28-May-2024 18:00Overcast Clouds23°C9 mph, SE100%10000m1012hPa80%